createdAt,value
2023-02-15T00:04:47.284Z,1.71
2023-02-15T00:14:51.896Z,1.64
2023-02-15T00:24:54.901Z,1.57
2023-02-15T00:34:59.250Z,1.50
2023-02-15T00:45:02.220Z,1.36
2023-02-15T00:55:07.583Z,1.25
2023-02-15T01:05:10.618Z,1.15
2023-02-15T01:15:15.387Z,1.09
2023-02-15T01:25:18.817Z,1.00
2023-02-15T01:35:23.362Z,0.96
2023-02-15T01:45:28.161Z,0.79
2023-02-15T01:55:36.934Z,0.66
2023-02-15T02:05:41.160Z,0.54
2023-02-15T02:15:54.895Z,0.47
2023-02-15T02:26:40.946Z,0.41
2023-02-15T02:36:54.626Z,0.31
2023-02-15T02:47:01.888Z,0.30
2023-02-15T02:57:11.195Z,0.25
2023-02-15T03:07:22.902Z,0.19
2023-02-15T03:17:32.646Z,0.17
2023-02-15T03:27:41.967Z,0.17
2023-02-15T03:37:52.031Z,0.40
2023-02-15T03:47:57.992Z,0.53
2023-02-15T03:58:22.198Z,0.45
2023-02-15T04:08:46.115Z,0.29
2023-02-15T04:19:07.966Z,0.18
2023-02-15T04:29:10.917Z,0.16
2023-02-15T04:39:16.958Z,0.09
2023-02-15T04:49:19.969Z,0.05
2023-02-15T04:59:24.329Z,0.17
2023-02-15T05:09:27.324Z,0.45
2023-02-15T05:19:31.697Z,0.59
2023-02-15T05:29:34.657Z,0.56
2023-02-15T05:39:39.073Z,0.50
2023-02-15T05:49:42.043Z,0.38
2023-02-15T05:59:46.373Z,0.23
2023-02-15T06:09:49.359Z,0.19
2023-02-15T06:19:53.723Z,0.40
2023-02-15T06:29:56.701Z,0.54
2023-02-15T06:40:03.677Z,0.47
2023-02-15T06:50:08.289Z,0.39
2023-02-15T07:00:14.307Z,0.40
2023-02-15T07:10:17.772Z,0.54
2023-02-15T07:20:25.045Z,0.69
2023-02-15T07:30:28.382Z,0.83
2023-02-15T07:40:33.199Z,1.04
2023-02-15T07:50:36.260Z,1.30
2023-02-15T08:00:54.727Z,1.60
2023-02-15T08:11:18.597Z,1.83
2023-02-15T08:21:24.976Z,2.12
2023-02-15T08:31:29.675Z,2.53
2023-02-15T08:41:36.590Z,2.96
2023-02-15T08:51:40.747Z,3.43
2023-02-15T09:01:45.968Z,3.78
2023-02-15T09:11:56.026Z,4.22
2023-02-15T09:22:03.005Z,4.66
2023-02-15T09:32:06.518Z,5.06
2023-02-15T09:42:43.390Z,5.45
2023-02-15T09:53:06.631Z,5.98
2023-02-15T10:03:30.095Z,6.44
2023-02-15T10:13:46.639Z,6.95
2023-02-15T10:24:10.012Z,7.44
2023-02-15T10:34:18.773Z,7.91
2023-02-15T10:44:39.040Z,8.34
2023-02-15T10:54:51.243Z,8.81
2023-02-15T11:05:04.852Z,9.35
2023-02-15T11:15:19.548Z,9.93
2023-02-15T11:25:27.518Z,10.35
2023-02-15T11:35:36.395Z,10.51
2023-02-15T11:45:43.856Z,10.87
2023-02-15T11:55:48.890Z,11.05
2023-02-15T12:05:55.704Z,11.32
2023-02-15T12:16:01.276Z,11.72
2023-02-15T12:26:06.088Z,11.90
2023-02-15T12:36:13.528Z,12.00
2023-02-15T12:46:24.874Z,12.26
2023-02-15T12:56:29.601Z,12.47
2023-02-15T13:06:36.114Z,12.65
2023-02-15T13:16:41.840Z,12.99
2023-02-15T13:26:48.181Z,13.06
2023-02-15T13:36:57.683Z,12.96
2023-02-15T13:47:19.188Z,12.96
2023-02-15T13:57:42.928Z,13.20
2023-02-15T14:07:58.676Z,13.48
2023-02-15T14:18:15.427Z,13.23
2023-02-15T14:28:29.002Z,13.22
2023-02-15T14:38:46.699Z,12.87
2023-02-15T14:48:54.310Z,12.87
2023-02-15T14:59:11.196Z,12.74
2023-02-15T15:09:23.354Z,12.58
2023-02-15T15:20:08.537Z,12.58
2023-02-15T15:31:00.809Z,12.38
2023-02-15T15:41:20.248Z,12.20
2023-02-15T15:51:31.448Z,12.05
2023-02-15T16:01:42.542Z,11.78
2023-02-15T16:11:46.179Z,11.59
2023-02-15T16:21:51.450Z,11.34
2023-02-15T16:32:01.025Z,11.05
2023-02-15T16:42:06.332Z,10.82
2023-02-15T16:52:14.053Z,10.54
2023-02-15T17:02:40.550Z,10.04
2023-02-15T17:12:48.440Z,9.80
2023-02-15T17:22:53.202Z,9.52
2023-02-15T17:32:59.909Z,9.31
2023-02-15T17:43:04.470Z,9.10
2023-02-15T17:53:11.108Z,9.07
2023-02-15T18:03:32.847Z,8.87
2023-02-15T18:13:36.119Z,8.67
2023-02-15T18:23:41.395Z,8.40
2023-02-15T18:33:48.384Z,8.03
2023-02-15T18:43:53.908Z,7.83
2023-02-15T18:53:57.855Z,7.75
2023-02-15T19:04:02.282Z,7.74
2023-02-15T19:14:05.306Z,7.88
2023-02-15T19:24:17.207Z,7.87
2023-02-15T19:34:20.588Z,7.89
2023-02-15T19:44:25.410Z,7.86
2023-02-15T19:54:31.804Z,7.78
2023-02-15T20:04:36.626Z,7.80
2023-02-15T20:14:42.152Z,7.80
2023-02-15T20:24:46.999Z,7.75
2023-02-15T20:34:50.057Z,7.86
2023-02-15T20:44:54.606Z,7.87
2023-02-15T20:54:57.793Z,7.85
2023-02-15T21:05:02.444Z,7.88
2023-02-15T21:15:26.929Z,7.81
2023-02-15T21:25:35.168Z,7.76
2023-02-15T21:35:38.552Z,7.65
2023-02-15T21:46:00.645Z,7.60
2023-02-15T21:56:06.037Z,7.46
2023-02-15T22:06:13.894Z,7.22
2023-02-15T22:16:18.752Z,7.04
2023-02-15T22:26:26.133Z,6.83
2023-02-15T22:36:31.628Z,6.66
2023-02-15T22:46:36.760Z,6.59
2023-02-15T22:56:42.344Z,6.52
2023-02-15T23:06:46.786Z,6.38
2023-02-15T23:16:50.159Z,6.19
2023-02-15T23:26:55.113Z,6.06
2023-02-15T23:36:58.227Z,5.89
2023-02-15T23:47:02.870Z,5.86
2023-02-15T23:57:05.927Z,5.77
